Time;durP1;ratioP1;P1;durP2;ratioP2;P2;SDS_P1;SDS_P2;PMS_P1;PMS_P2;Temp;Humidity;BMP_temperature;BMP_pressure;BME280_temperature;BME280_humidity;BME280_pressure;Samples;Min_cycle;Max_cycle;Signal;HPM_P1;HPM_P2
2022/10/24 00:00:22;;;;;;;1.40;1.30;;;;;;;;;;5137759;27;20207;-66
2022/10/24 00:02:50;;;;;;;1.40;1.30;;;;;;;;;;5138011;28;20278;-66
2022/10/24 00:05:17;;;;;;;1.40;1.30;;;;;;;;;;5141351;27;20197;-66
2022/10/24 00:07:45;;;;;;;1.50;1.40;;;;;;;;;;5159916;27;20261;-66
2022/10/24 00:10:13;;;;;;;1.50;1.40;;;;;;;;;;5161853;27;20212;-66
2022/10/24 00:12:43;;;;;;;1.63;1.50;;;;;;;;;;5162386;27;20201;-65
2022/10/24 00:15:11;;;;;;;1.30;1.20;;;;;;;;;;5162301;27;20212;-65
2022/10/24 00:17:38;;;;;;;1.40;1.30;;;;;;;;;;5162085;27;20328;-65
2022/10/24 00:20:07;;;;;;;1.77;1.40;;;;;;;;;;5150396;27;20203;-66
2022/10/24 00:22:34;;;;;;;1.33;1.20;;;;;;;;;;5138345;27;20294;-65
2022/10/24 00:25:02;;;;;;;1.30;1.20;;;;;;;;;;5120521;28;20246;-65
2022/10/24 00:27:30;;;;;;;1.40;1.30;;;;;;;;;;5119971;28;20207;-66
2022/10/24 00:30:00;;;;;;;1.40;1.30;;;;;;;;;;5120669;28;20499;-66
2022/10/24 00:32:27;;;;;;;1.50;1.40;;;;;;;;;;5120807;28;20305;-66
2022/10/24 00:34:55;;;;;;;1.20;1.10;;;;;;;;;;5120897;27;20211;-66
2022/10/24 00:37:23;;;;;;;1.40;1.30;;;;;;;;;;5148493;27;20202;-66
2022/10/24 00:39:51;;;;;;;1.10;1.00;;;;;;;;;;5141184;27;20226;-66
2022/10/24 00:42:19;;;;;;;1.40;1.30;;;;;;;;;;5140370;27;20202;-65
2022/10/24 00:44:47;;;;;;;0.90;0.90;;;;;;;;;;5140878;27;20272;-66
2022/10/24 00:47:18;;;;;;;1.55;1.35;;;;;;;;;;5140632;27;20304;-66
2022/10/24 00:49:47;;;;;;;1.30;1.20;;;;;;;;;;5138983;27;20696;-66
2022/10/24 00:52:16;;;;;;;1.20;1.10;;;;;;;;;;5161302;27;20206;-66
2022/10/24 00:54:44;;;;;;;1.40;1.30;;;;;;;;;;5160974;27;20198;-66
2022/10/24 00:57:14;;;;;;;1.30;1.20;;;;;;;;;;5160930;27;20201;-66
2022/10/24 00:59:44;;;;;;;1.23;1.13;;;;;;;;;;5160981;27;20233;-66
2022/10/24 01:02:12;;;;;;;1.30;1.20;;;;;;;;;;5161047;27;20201;-66
2022/10/24 01:04:41;;;;;;;1.27;1.17;;;;;;;;;;5161515;27;20526;-65
2022/10/24 01:07:17;;;;;;;1.52;1.10;;;;;;;;;;5140915;27;20297;-66
2022/10/24 01:09:53;;;;;;;1.55;1.42;;;;;;;;;;5140365;27;20273;-66
2022/10/24 01:12:25;;;;;;;1.25;1.17;;;;;;;;;;5140460;27;20202;-66
2022/10/24 01:14:58;;;;;;;1.50;1.40;;;;;;;;;;5140225;27;20202;-66
2022/10/24 01:17:32;;;;;;;1.27;1.17;;;;;;;;;;5133557;27;20203;-65
2022/10/24 01:20:18;;;;;;;0.98;0.98;;;;;;;;;;5121040;27;20317;-66
2022/10/24 01:22:50;;;;;;;1.20;1.10;;;;;;;;;;5161272;27;20202;-65
2022/10/24 01:25:21;;;;;;;1.45;1.20;;;;;;;;;;5161366;27;20201;-65
2022/10/24 01:27:58;;;;;;;1.27;1.17;;;;;;;;;;5159970;27;20229;-65
2022/10/24 01:30:30;;;;;;;1.30;1.20;;;;;;;;;;5160568;27;20209;-65
2022/10/24 01:33:00;;;;;;;1.20;1.10;;;;;;;;;;5160655;27;20245;-65
2022/10/24 01:35:34;;;;;;;1.20;1.10;;;;;;;;;;5146273;27;20206;-65
2022/10/24 01:38:05;;;;;;;1.20;1.10;;;;;;;;;;5160792;27;20231;-65
2022/10/24 01:40:35;;;;;;;1.05;1.00;;;;;;;;;;5160525;27;20209;-65
2022/10/24 01:43:06;;;;;;;1.10;0.98;;;;;;;;;;5160905;27;20201;-65
2022/10/24 01:45:38;;;;;;;1.30;1.20;;;;;;;;;;5159759;27;20216;-65
2022/10/24 01:48:07;;;;;;;1.13;1.10;;;;;;;;;;5160559;27;20254;-64
2022/10/24 01:50:36;;;;;;;1.30;1.20;;;;;;;;;;5160979;27;20270;-64
2022/10/24 01:53:04;;;;;;;1.17;1.10;;;;;;;;;;5160051;27;20252;-65
2022/10/24 01:55:32;;;;;;;1.30;1.20;;;;;;;;;;5157976;27;20201;-65
2022/10/24 01:58:00;;;;;;;1.10;1.10;;;;;;;;;;5123173;27;20231;-65
2022/10/24 02:00:28;;;;;;;1.00;1.00;;;;;;;;;;5139499;27;20229;-65
2022/10/24 02:03:00;;;;;;;1.20;1.10;;;;;;;;;;5139372;27;20531;-65
2022/10/24 02:05:29;;;;;;;1.20;1.10;;;;;;;;;;5144032;27;20196;-65
2022/10/24 02:07:58;;;;;;;1.10;1.00;;;;;;;;;;5160275;27;20474;-65
2022/10/24 02:10:28;;;;;;;1.00;0.90;;;;;;;;;;5159709;27;20262;-65
2022/10/24 02:12:58;;;;;;;1.20;1.10;;;;;;;;;;5160001;27;20291;-65
2022/10/24 02:15:27;;;;;;;0.90;0.90;;;;;;;;;;5159986;27;20201;-64
2022/10/24 02:17:57;;;;;;;0.90;0.90;;;;;;;;;;5159953;27;20202;-64
2022/10/24 02:20:28;;;;;;;0.93;0.93;;;;;;;;;;5159414;27;20228;-64
2022/10/24 02:22:58;;;;;;;1.10;1.00;;;;;;;;;;5150923;27;20221;-64
2022/10/24 02:25:28;;;;;;;0.90;0.90;;;;;;;;;;5139667;27;20208;-65
2022/10/24 02:27:59;;;;;;;1.10;0.88;;;;;;;;;;5159349;27;20279;-64
2022/10/24 02:30:27;;;;;;;0.90;0.90;;;;;;;;;;5159042;27;20201;-65
2022/10/24 02:32:56;;;;;;;1.15;1.05;;;;;;;;;;5159795;27;20228;-65
2022/10/24 02:35:27;;;;;;;1.13;0.95;;;;;;;;;;5159144;27;20592;-65
2022/10/24 02:37:56;;;;;;;1.58;0.90;;;;;;;;;;5159434;27;20201;-64
2022/10/24 02:40:24;;;;;;;1.00;0.95;;;;;;;;;;5158927;27;20221;-65
2022/10/24 02:42:53;;;;;;;1.05;1.00;;;;;;;;;;5159727;27;20285;-64
2022/10/24 02:45:21;;;;;;;1.08;1.00;;;;;;;;;;5160090;27;20230;-66
2022/10/24 02:47:50;;;;;;;0.98;0.98;;;;;;;;;;5159482;27;20201;-64
2022/10/24 02:50:18;;;;;;;1.20;0.98;;;;;;;;;;5154724;27;20221;-65
2022/10/24 02:52:47;;;;;;;1.33;1.10;;;;;;;;;;5159077;27;20204;-65
2022/10/24 02:55:15;;;;;;;2.22;1.00;;;;;;;;;;5159562;27;20213;-65
2022/10/24 02:57:43;;;;;;;1.10;1.00;;;;;;;;;;5158580;27;20285;-65
2022/10/24 03:00:12;;;;;;;1.20;1.00;;;;;;;;;;5159133;27;20228;-65
2022/10/24 03:02:39;;;;;;;1.30;0.90;;;;;;;;;;5159689;27;20570;-64
2022/10/24 03:05:08;;;;;;;1.40;0.90;;;;;;;;;;5156396;27;20201;-65
2022/10/24 03:07:36;;;;;;;1.05;0.95;;;;;;;;;;5158287;27;20208;-64
2022/10/24 03:10:06;;;;;;;0.88;0.88;;;;;;;;;;5158703;27;20198;-64
2022/10/24 03:12:33;;;;;;;0.80;0.80;;;;;;;;;;5159035;27;20261;-64
2022/10/24 03:15:01;;;;;;;0.90;0.90;;;;;;;;;;5158598;27;20589;-65
2022/10/24 03:17:29;;;;;;;1.30;1.00;;;;;;;;;;5148746;27;20255;-65
2022/10/24 03:19:57;;;;;;;1.42;0.90;;;;;;;;;;5130215;27;20227;-65
2022/10/24 03:22:24;;;;;;;1.08;0.93;;;;;;;;;;5159137;27;20473;-65
2022/10/24 03:24:52;;;;;;;0.90;0.90;;;;;;;;;;5158624;27;20209;-65
2022/10/24 03:27:22;;;;;;;1.00;1.00;;;;;;;;;;5158587;27;20457;-64
2022/10/24 03:29:50;;;;;;;1.10;1.00;;;;;;;;;;5158839;27;20596;-65
2022/10/24 03:32:18;;;;;;;1.00;0.90;;;;;;;;;;5158435;27;20216;-65
2022/10/24 03:34:46;;;;;;;1.00;1.00;;;;;;;;;;5158682;27;20332;-65
2022/10/24 03:37:13;;;;;;;0.73;0.73;;;;;;;;;;5158546;27;20213;-65
2022/10/24 03:39:41;;;;;;;1.00;0.80;;;;;;;;;;5158341;27;20225;-65
2022/10/24 03:42:09;;;;;;;1.10;1.00;;;;;;;;;;5159251;27;20210;-64
2022/10/24 03:44:38;;;;;;;1.80;0.90;;;;;;;;;;5153589;27;20284;-65
2022/10/24 03:47:06;;;;;;;0.80;0.80;;;;;;;;;;5144489;27;20197;-64
2022/10/24 03:49:34;;;;;;;1.00;0.90;;;;;;;;;;5162549;27;20569;-64
2022/10/24 03:52:02;;;;;;;1.20;0.80;;;;;;;;;;5161815;27;20263;-64
2022/10/24 03:54:30;;;;;;;1.65;0.90;;;;;;;;;;5162647;27;20208;-64
2022/10/24 03:56:57;;;;;;;0.80;0.80;;;;;;;;;;5162624;27;20222;-65
2022/10/24 03:59:25;;;;;;;0.98;0.77;;;;;;;;;;5162527;27;20221;-64
2022/10/24 04:01:54;;;;;;;0.85;0.80;;;;;;;;;;5162289;27;20206;-64
2022/10/24 04:04:22;;;;;;;0.80;0.80;;;;;;;;;;5161671;27;20248;-64
2022/10/24 04:06:50;;;;;;;0.98;0.90;;;;;;;;;;5144758;27;20293;-66
2022/10/24 04:09:17;;;;;;;1.35;1.10;;;;;;;;;;5140932;27;20255;-64
2022/10/24 04:11:45;;;;;;;0.80;0.73;;;;;;;;;;5140306;27;20281;-65
2022/10/24 04:14:12;;;;;;;0.90;0.90;;;;;;;;;;5136873;27;20475;-65
2022/10/24 04:16:40;;;;;;;1.55;0.93;;;;;;;;;;5120592;28;20238;-65
2022/10/24 04:19:10;;;;;;;0.90;0.65;;;;;;;;;;5119959;28;20332;-65
2022/10/24 04:21:37;;;;;;;1.00;0.90;;;;;;;;;;5150316;27;20263;-65
2022/10/24 04:24:05;;;;;;;0.90;0.80;;;;;;;;;;5161893;27;20285;-65
2022/10/24 04:26:32;;;;;;;0.93;0.93;;;;;;;;;;5161559;27;20249;-64
2022/10/24 04:28:59;;;;;;;0.80;0.80;;;;;;;;;;5150832;27;20266;-64
2022/10/24 04:31:27;;;;;;;0.80;0.80;;;;;;;;;;5139937;27;20289;-65
2022/10/24 04:33:54;;;;;;;0.70;0.70;;;;;;;;;;5140516;27;20795;-64
2022/10/24 04:36:23;;;;;;;0.75;0.75;;;;;;;;;;5153148;27;20288;-65
2022/10/24 04:38:50;;;;;;;0.88;0.80;;;;;;;;;;5153059;27;20285;-65
2022/10/24 04:41:18;;;;;;;1.10;0.90;;;;;;;;;;5139844;27;20314;-64
2022/10/24 04:43:46;;;;;;;0.63;0.63;;;;;;;;;;5156941;27;20289;-65
2022/10/24 04:46:13;;;;;;;2.22;0.70;;;;;;;;;;5161228;27;20303;-65
2022/10/24 04:48:40;;;;;;;1.02;0.80;;;;;;;;;;5160569;27;20292;-64
2022/10/24 04:51:08;;;;;;;0.70;0.70;;;;;;;;;;5160471;27;20194;-65
2022/10/24 04:53:37;;;;;;;0.60;0.60;;;;;;;;;;5160060;27;20296;-65
2022/10/24 04:56:04;;;;;;;0.90;0.70;;;;;;;;;;5160063;27;20666;-64
2022/10/24 04:58:32;;;;;;;0.70;0.70;;;;;;;;;;5161042;27;20237;-65
2022/10/24 05:01:00;;;;;;;0.80;0.80;;;;;;;;;;5160362;27;20264;-65
2022/10/24 05:03:27;;;;;;;0.70;0.70;;;;;;;;;;5160503;27;20558;-65
2022/10/24 05:05:54;;;;;;;0.80;0.80;;;;;;;;;;5151832;27;20593;-65
2022/10/24 05:08:22;;;;;;;0.70;0.70;;;;;;;;;;5138578;27;20267;-64
2022/10/24 05:10:51;;;;;;;0.70;0.70;;;;;;;;;;5152252;27;20241;-65
2022/10/24 05:13:18;;;;;;;0.80;0.77;;;;;;;;;;5160542;27;20297;-64
2022/10/24 05:15:46;;;;;;;2.58;0.80;;;;;;;;;;5160104;27;20304;-64
2022/10/24 05:18:13;;;;;;;0.80;0.80;;;;;;;;;;5159299;27;20288;-66
2022/10/24 05:20:41;;;;;;;1.15;0.80;;;;;;;;;;5159938;27;20248;-65
2022/10/24 05:23:08;;;;;;;0.70;0.70;;;;;;;;;;5159777;27;20296;-64
2022/10/24 05:25:36;;;;;;;0.80;0.80;;;;;;;;;;5159906;27;20200;-65
2022/10/24 05:28:05;;;;;;;1.02;0.80;;;;;;;;;;5159345;27;20693;-65
2022/10/24 05:30:32;;;;;;;0.85;0.80;;;;;;;;;;5159502;27;20229;-64
2022/10/24 05:32:59;;;;;;;0.77;0.77;;;;;;;;;;5153822;27;20377;-65
2022/10/24 05:35:27;;;;;;;0.73;0.70;;;;;;;;;;5143785;27;20289;-65
2022/10/24 05:37:54;;;;;;;1.40;0.75;;;;;;;;;;5159052;27;20197;-64
2022/10/24 05:40:22;;;;;;;2.20;0.82;;;;;;;;;;5158737;27;20699;-64
2022/10/24 05:42:51;;;;;;;1.00;0.70;;;;;;;;;;5158578;27;20300;-64
2022/10/24 05:45:20;;;;;;;1.80;0.90;;;;;;;;;;5159006;27;20201;-64
2022/10/24 05:47:47;;;;;;;0.80;0.70;;;;;;;;;;5158993;27;20233;-65
2022/10/24 05:50:15;;;;;;;0.85;0.85;;;;;;;;;;5158642;27;20222;-65
2022/10/24 05:52:43;;;;;;;0.82;0.77;;;;;;;;;;5158907;27;20201;-64
2022/10/24 05:55:11;;;;;;;0.93;0.88;;;;;;;;;;5158730;27;20753;-64
2022/10/24 05:57:39;;;;;;;0.68;0.60;;;;;;;;;;5158204;27;20201;-64
2022/10/24 06:00:07;;;;;;;1.60;0.80;;;;;;;;;;5149713;27;20214;-64
2022/10/24 06:02:36;;;;;;;1.17;0.80;;;;;;;;;;5117458;28;20567;-64
2022/10/24 06:05:03;;;;;;;0.77;0.77;;;;;;;;;;5146768;27;20288;-64
2022/10/24 06:07:31;;;;;;;1.23;0.90;;;;;;;;;;5158907;27;20288;-64
2022/10/24 06:09:59;;;;;;;0.80;0.80;;;;;;;;;;5158657;27;20378;-65
2022/10/24 06:12:26;;;;;;;0.88;0.88;;;;;;;;;;5157530;27;20244;-63
2022/10/24 06:14:57;;;;;;;0.80;0.80;;;;;;;;;;5157836;27;20213;-64
2022/10/24 06:17:25;;;;;;;0.63;0.63;;;;;;;;;;5158128;27;20288;-65
2022/10/24 06:19:54;;;;;;;1.33;0.90;;;;;;;;;;5158283;27;20242;-64
2022/10/24 06:22:24;;;;;;;0.85;0.80;;;;;;;;;;5158224;27;20758;-65
2022/10/24 06:24:51;;;;;;;1.65;0.88;;;;;;;;;;5158830;27;20208;-65
2022/10/24 06:27:19;;;;;;;0.70;0.70;;;;;;;;;;5151486;27;20233;-65
2022/10/24 06:29:46;;;;;;;0.77;0.60;;;;;;;;;;5137233;27;20202;-65
2022/10/24 06:32:14;;;;;;;0.80;0.60;;;;;;;;;;5142654;27;20201;-64
2022/10/24 06:34:41;;;;;;;0.77;0.63;;;;;;;;;;5157449;27;20653;-64
2022/10/24 06:37:10;;;;;;;3.10;0.95;;;;;;;;;;5154024;27;20222;-64
2022/10/24 06:39:37;;;;;;;1.02;0.88;;;;;;;;;;5157973;27;20292;-65
2022/10/24 06:42:05;;;;;;;1.10;0.93;;;;;;;;;;5143356;27;20258;-65
2022/10/24 06:44:32;;;;;;;1.58;0.80;;;;;;;;;;5133352;27;20259;-65
2022/10/24 06:47:00;;;;;;;1.13;0.65;;;;;;;;;;5149137;27;20203;-64
2022/10/24 06:49:27;;;;;;;1.73;0.90;;;;;;;;;;5140664;27;20224;-65
2022/10/24 06:51:55;;;;;;;2.15;0.80;;;;;;;;;;5153430;27;20247;-64
2022/10/24 06:54:24;;;;;;;1.17;0.70;;;;;;;;;;5149749;27;20285;-64
2022/10/24 06:56:51;;;;;;;1.10;0.50;;;;;;;;;;5136930;27;20202;-65
2022/10/24 06:59:19;;;;;;;1.48;0.88;;;;;;;;;;5136257;27;20531;-65
2022/10/24 07:01:46;;;;;;;1.27;0.93;;;;;;;;;;5135775;27;20226;-65
2022/10/24 07:04:14;;;;;;;0.80;0.80;;;;;;;;;;5136346;27;20288;-65
2022/10/24 07:06:41;;;;;;;1.17;1.02;;;;;;;;;;5136301;27;20279;-64
2022/10/24 07:09:09;;;;;;;1.00;0.88;;;;;;;;;;5135117;27;20298;-64
2022/10/24 07:11:38;;;;;;;0.80;0.60;;;;;;;;;;5134256;28;20654;-64
2022/10/24 07:14:08;;;;;;;0.80;0.77;;;;;;;;;;5135642;28;20210;-64
2022/10/24 07:16:35;;;;;;;1.27;0.80;;;;;;;;;;5135483;27;20194;-64
2022/10/24 07:19:03;;;;;;;1.55;1.00;;;;;;;;;;5139922;27;20212;-64
2022/10/24 07:21:31;;;;;;;1.00;0.82;;;;;;;;;;5140069;27;20232;-64
2022/10/24 07:23:59;;;;;;;1.20;0.98;;;;;;;;;;5139094;27;20285;-64
2022/10/24 07:26:27;;;;;;;0.82;0.73;;;;;;;;;;5136336;27;20186;-65
2022/10/24 07:28:59;;;;;;;1.25;0.80;;;;;;;;;;5138685;27;20268;-65
2022/10/24 07:31:27;;;;;;;1.00;0.90;;;;;;;;;;5139994;27;20526;-64
2022/10/24 07:33:55;;;;;;;0.70;0.70;;;;;;;;;;5140126;27;20309;-64
2022/10/24 07:36:24;;;;;;;1.55;0.82;;;;;;;;;;5140191;27;20616;-64
2022/10/24 07:38:53;;;;;;;1.13;0.88;;;;;;;;;;5139665;27;20297;-64
2022/10/24 07:41:21;;;;;;;1.20;0.95;;;;;;;;;;5139895;27;20422;-65
2022/10/24 07:43:48;;;;;;;1.55;0.93;;;;;;;;;;5140230;27;20736;-64
2022/10/24 07:46:18;;;;;;;1.40;0.90;;;;;;;;;;5139121;27;20292;-65
2022/10/24 07:48:45;;;;;;;0.93;0.82;;;;;;;;;;5140028;27;20296;-64
2022/10/24 07:51:14;;;;;;;0.73;0.68;;;;;;;;;;5140665;27;20262;-65
2022/10/24 07:53:42;;;;;;;0.80;0.65;;;;;;;;;;5138924;27;20198;-64
2022/10/24 07:56:14;;;;;;;1.00;0.90;;;;;;;;;;5139219;27;20210;-65
2022/10/24 07:58:42;;;;;;;0.93;0.80;;;;;;;;;;5139089;27;20205;-66
2022/10/24 08:01:10;;;;;;;1.33;0.82;;;;;;;;;;5139617;27;20286;-65
2022/10/24 08:03:39;;;;;;;1.35;0.80;;;;;;;;;;5139593;27;20632;-65
2022/10/24 08:06:08;;;;;;;1.10;0.70;;;;;;;;;;5139153;27;20237;-64
2022/10/24 08:08:36;;;;;;;0.98;0.90;;;;;;;;;;5139122;27;20245;-65
2022/10/24 08:11:07;;;;;;;1.35;1.15;;;;;;;;;;5138949;27;20574;-64
2022/10/24 08:13:35;;;;;;;0.70;0.70;;;;;;;;;;5139055;27;20322;-65
2022/10/24 08:16:02;;;;;;;1.30;1.10;;;;;;;;;;5139156;27;20238;-64
2022/10/24 08:18:30;;;;;;;0.70;0.70;;;;;;;;;;5139226;27;20601;-64
2022/10/24 08:21:00;;;;;;;1.33;0.80;;;;;;;;;;5137585;27;20229;-64
2022/10/24 08:23:28;;;;;;;0.93;0.82;;;;;;;;;;5138941;27;20245;-64
2022/10/24 08:25:56;;;;;;;1.05;0.80;;;;;;;;;;5139086;27;20202;-64
2022/10/24 08:28:23;;;;;;;0.88;0.70;;;;;;;;;;5138053;27;20257;-65
2022/10/24 08:30:57;;;;;;;0.80;0.80;;;;;;;;;;5137770;27;20205;-65
2022/10/24 08:33:25;;;;;;;0.90;0.90;;;;;;;;;;5139290;27;20238;-64
2022/10/24 08:35:53;;;;;;;1.02;0.93;;;;;;;;;;5138617;27;20266;-65
2022/10/24 08:38:22;;;;;;;0.85;0.82;;;;;;;;;;5138198;27;20202;-65
2022/10/24 08:40:50;;;;;;;0.85;0.82;;;;;;;;;;5138589;27;20473;-65
2022/10/24 08:43:17;;;;;;;0.63;0.60;;;;;;;;;;5138639;27;20229;-64
2022/10/24 08:45:50;;;;;;;0.88;0.70;;;;;;;;;;5137157;27;20202;-65
2022/10/24 08:48:20;;;;;;;1.33;0.90;;;;;;;;;;5136661;27;20203;-65
2022/10/24 08:50:52;;;;;;;0.90;0.90;;;;;;;;;;5137899;27;20259;-65
2022/10/24 08:53:22;;;;;;;1.30;0.88;;;;;;;;;;5138495;27;20576;-64
2022/10/24 08:55:52;;;;;;;0.80;0.80;;;;;;;;;;5138456;27;20245;-64
2022/10/24 08:58:22;;;;;;;1.08;0.88;;;;;;;;;;5138696;27;20198;-64
2022/10/24 09:00:51;;;;;;;1.80;0.93;;;;;;;;;;5138084;27;20222;-64
2022/10/24 09:03:20;;;;;;;1.20;0.80;;;;;;;;;;5137924;27;20233;-64
2022/10/24 09:05:49;;;;;;;2.55;1.10;;;;;;;;;;5137703;27;20212;-65
2022/10/24 09:08:22;;;;;;;1.55;1.05;;;;;;;;;;5138494;27;20233;-64
2022/10/24 09:10:54;;;;;;;1.05;0.80;;;;;;;;;;5137673;27;20247;-65
2022/10/24 09:13:22;;;;;;;1.45;1.17;;;;;;;;;;5138092;27;20281;-65
2022/10/24 09:15:51;;;;;;;1.02;0.93;;;;;;;;;;5137686;27;20199;-64
2022/10/24 09:18:20;;;;;;;1.50;1.00;;;;;;;;;;5137406;27;20245;-65
2022/10/24 09:20:48;;;;;;;1.58;1.30;;;;;;;;;;5136405;27;20321;-65
2022/10/24 09:23:17;;;;;;;1.20;1.10;;;;;;;;;;5137626;27;20788;-64
2022/10/24 09:25:46;;;;;;;1.35;1.20;;;;;;;;;;5136677;27;20203;-65
2022/10/24 09:28:16;;;;;;;1.30;1.20;;;;;;;;;;5137394;27;20264;-64
2022/10/24 09:30:43;;;;;;;1.10;1.00;;;;;;;;;;5136787;27;20212;-64
2022/10/24 09:33:14;;;;;;;1.40;1.30;;;;;;;;;;5136666;27;20285;-65
2022/10/24 09:35:43;;;;;;;1.60;1.10;;;;;;;;;;5136531;27;20659;-65
2022/10/24 09:38:30;;;;;;;1.40;1.20;;;;;;;;;;5137462;27;20224;-64
2022/10/24 09:41:01;;;;;;;1.55;1.10;;;;;;;;;;5136594;27;20254;-65
2022/10/24 09:43:33;;;;;;;1.77;1.10;;;;;;;;;;5135457;27;20566;-64
2022/10/24 09:46:03;;;;;;;1.42;1.20;;;;;;;;;;5138000;27;20266;-65
2022/10/24 09:48:32;;;;;;;1.73;1.40;;;;;;;;;;5137482;27;20633;-64
2022/10/24 09:51:00;;;;;;;1.63;1.30;;;;;;;;;;5136240;27;20226;-65
2022/10/24 09:53:29;;;;;;;1.55;1.45;;;;;;;;;;5136717;27;20202;-64
2022/10/24 09:55:58;;;;;;;1.52;1.20;;;;;;;;;;5137587;27;20331;-64
2022/10/24 09:58:31;;;;;;;1.23;1.13;;;;;;;;;;5136953;27;20297;-64
2022/10/24 10:01:01;;;;;;;1.80;1.23;;;;;;;;;;5135474;27;20202;-64
2022/10/24 10:03:28;;;;;;;2.00;1.23;;;;;;;;;;5136220;27;20245;-65
2022/10/24 10:05:56;;;;;;;2.72;1.70;;;;;;;;;;5136471;27;20234;-64
2022/10/24 10:08:27;;;;;;;1.55;1.30;;;;;;;;;;5136051;27;20210;-64
2022/10/24 10:10:58;;;;;;;1.70;1.48;;;;;;;;;;5135356;27;20202;-64
2022/10/24 10:13:26;;;;;;;1.30;1.17;;;;;;;;;;5137109;27;20198;-65
2022/10/24 10:15:55;;;;;;;1.75;1.38;;;;;;;;;;5136585;27;20202;-64
2022/10/24 10:18:41;;;;;;;1.65;1.50;;;;;;;;;;5135997;27;20234;-64
2022/10/24 10:21:11;;;;;;;1.42;1.33;;;;;;;;;;5119940;27;20271;-64
2022/10/24 10:23:39;;;;;;;2.22;1.40;;;;;;;;;;5135802;27;20309;-65
2022/10/24 10:26:12;;;;;;;1.70;1.35;;;;;;;;;;5136147;27;20202;-64
2022/10/24 10:28:43;;;;;;;1.63;1.50;;;;;;;;;;5136408;27;20241;-65
2022/10/24 10:31:11;;;;;;;1.45;1.35;;;;;;;;;;5136700;27;20301;-64
2022/10/24 10:33:43;;;;;;;1.90;1.40;;;;;;;;;;5136479;27;20302;-65
2022/10/24 10:36:14;;;;;;;1.95;1.40;;;;;;;;;;5135988;27;20281;-64
2022/10/24 10:38:45;;;;;;;1.65;1.55;;;;;;;;;;5134957;27;20529;-64
2022/10/24 10:41:16;;;;;;;1.60;1.35;;;;;;;;;;5134278;27;20206;-65
2022/10/24 10:43:48;;;;;;;1.45;1.25;;;;;;;;;;5135607;27;20281;-64
2022/10/24 10:46:22;;;;;;;1.50;1.23;;;;;;;;;;5135810;27;20259;-64
2022/10/24 10:48:56;;;;;;;2.42;1.35;;;;;;;;;;5135057;27;20202;-64
2022/10/24 10:51:29;;;;;;;2.20;1.45;;;;;;;;;;5135603;27;20237;-66
2022/10/24 10:54:01;;;;;;;1.65;1.30;;;;;;;;;;5135652;27;20206;-65
2022/10/24 10:56:32;;;;;;;1.60;1.27;;;;;;;;;;5134502;27;20234;-64
2022/10/24 10:59:04;;;;;;;1.70;1.50;;;;;;;;;;5135128;27;20236;-64
2022/10/24 11:01:35;;;;;;;1.77;1.40;;;;;;;;;;5134499;27;20288;-64
2022/10/24 11:04:05;;;;;;;1.73;1.40;;;;;;;;;;5135519;27;20510;-65
2022/10/24 11:06:40;;;;;;;1.20;1.05;;;;;;;;;;5115574;28;20207;-63
2022/10/24 11:09:19;;;;;;;1.85;1.30;;;;;;;;;;5115181;28;20245;-65
2022/10/24 11:14:44;;;;;;;1.33;1.23;;;;;;;;;;4066294;22;20560;-64
2022/10/24 11:17:14;;;;;;;1.30;1.20;;;;;;;;;;5096504;28;20204;-64
2022/10/24 11:19:44;;;;;;;1.83;1.35;;;;;;;;;;5097183;28;20496;-64
2022/10/24 11:22:17;;;;;;;1.60;1.20;;;;;;;;;;5096421;28;20314;-65
2022/10/24 11:24:48;;;;;;;2.83;1.50;;;;;;;;;;5094860;28;20247;-64
2022/10/24 11:27:21;;;;;;;1.25;1.15;;;;;;;;;;5095895;28;20230;-64
2022/10/24 11:29:51;;;;;;;1.30;1.20;;;;;;;;;;5095667;28;20214;-65
2022/10/24 11:32:21;;;;;;;1.85;1.35;;;;;;;;;;5095934;28;20302;-64
2022/10/24 11:34:50;;;;;;;1.67;1.23;;;;;;;;;;5095553;28;20306;-64
2022/10/24 11:37:22;;;;;;;1.30;1.15;;;;;;;;;;5094668;28;20590;-64
2022/10/24 11:39:53;;;;;;;2.33;1.17;;;;;;;;;;5095216;28;20207;-65
2022/10/24 11:42:23;;;;;;;1.27;1.00;;;;;;;;;;5095301;28;20319;-65
2022/10/24 11:44:54;;;;;;;1.50;1.20;;;;;;;;;;5094985;28;20204;-64
2022/10/24 11:47:38;;;;;;;1.48;1.25;;;;;;;;;;5095688;28;20235;-64
2022/10/24 11:50:11;;;;;;;1.45;1.23;;;;;;;;;;5095574;28;20306;-64
2022/10/24 11:52:42;;;;;;;1.80;1.10;;;;;;;;;;5094477;28;20293;-65
2022/10/24 11:55:15;;;;;;;1.17;1.00;;;;;;;;;;5094192;28;20298;-64
2022/10/24 11:57:44;;;;;;;1.35;1.15;;;;;;;;;;5094896;28;20559;-64
2022/10/24 12:00:17;;;;;;;1.13;0.95;;;;;;;;;;5094604;28;20199;-65
2022/10/24 12:03:07;;;;;;;1.02;0.90;;;;;;;;;;5094237;28;20582;-66
2022/10/24 12:05:51;;;;;;;1.27;1.10;;;;;;;;;;5098174;28;20287;-64
2022/10/24 12:08:27;;;;;;;1.20;1.10;;;;;;;;;;5099060;28;20286;-64
2022/10/24 12:11:13;;;;;;;1.30;1.20;;;;;;;;;;5098154;28;20206;-64
2022/10/24 12:13:50;;;;;;;1.40;0.90;;;;;;;;;;5097424;28;20539;-65
2022/10/24 12:16:24;;;;;;;1.23;1.13;;;;;;;;;;5096706;28;20246;-65
2022/10/24 12:18:53;;;;;;;1.30;1.13;;;;;;;;;;5097573;28;20302;-64
2022/10/24 12:21:24;;;;;;;1.48;1.00;;;;;;;;;;5098404;28;20294;-65
2022/10/24 12:23:56;;;;;;;1.40;1.08;;;;;;;;;;5097621;28;20282;-65
2022/10/24 12:26:26;;;;;;;1.02;0.90;;;;;;;;;;5098016;28;20203;-64
2022/10/24 12:28:54;;;;;;;1.63;1.30;;;;;;;;;;5098246;28;20227;-64
2022/10/24 12:31:23;;;;;;;1.55;1.08;;;;;;;;;;5098137;28;20207;-65
2022/10/24 12:34:05;;;;;;;1.38;1.23;;;;;;;;;;5097827;28;20216;-65
2022/10/24 12:36:47;;;;;;;1.15;1.00;;;;;;;;;;5097272;28;20203;-64
2022/10/24 12:39:29;;;;;;;1.25;1.00;;;;;;;;;;5096740;28;20269;-65
2022/10/24 12:41:57;;;;;;;1.00;0.80;;;;;;;;;;5095638;28;20251;-65
2022/10/24 12:44:36;;;;;;;1.38;1.27;;;;;;;;;;5097039;28;20606;-66
2022/10/24 12:47:25;;;;;;;1.52;1.10;;;;;;;;;;5097017;28;20199;-65
2022/10/24 12:49:53;;;;;;;1.50;0.90;;;;;;;;;;5097613;28;20234;-65
2022/10/24 12:52:35;;;;;;;1.83;1.10;;;;;;;;;;5098165;28;20196;-64
2022/10/24 12:55:04;;;;;;;1.15;1.05;;;;;;;;;;5096921;28;20298;-65
2022/10/24 12:57:33;;;;;;;1.17;0.98;;;;;;;;;;5097029;28;20269;-65
2022/10/24 13:00:01;;;;;;;1.70;1.00;;;;;;;;;;5097072;28;20203;-65
2022/10/24 13:02:47;;;;;;;1.20;0.80;;;;;;;;;;5097127;28;20228;-65
2022/10/24 13:05:22;;;;;;;1.08;0.95;;;;;;;;;;5097529;28;20200;-65
2022/10/24 13:07:55;;;;;;;1.08;0.98;;;;;;;;;;5096670;28;20710;-65
2022/10/24 13:10:32;;;;;;;2.05;1.10;;;;;;;;;;5096534;28;20564;-64
2022/10/24 13:13:08;;;;;;;0.90;0.80;;;;;;;;;;5096260;28;20305;-64
2022/10/24 13:15:42;;;;;;;1.77;0.98;;;;;;;;;;5095746;28;20239;-66
2022/10/24 13:18:17;;;;;;;0.90;0.90;;;;;;;;;;5096476;28;20202;-66
2022/10/24 13:20:45;;;;;;;1.30;1.00;;;;;;;;;;5096984;28;20283;-66
2022/10/24 13:23:15;;;;;;;1.25;0.90;;;;;;;;;;5096185;28;20227;-65
2022/10/24 13:25:44;;;;;;;0.98;0.88;;;;;;;;;;5096039;28;20298;-66
2022/10/24 13:28:37;;;;;;;1.17;0.90;;;;;;;;;;5095993;28;20839;-65
2022/10/24 13:31:23;;;;;;;1.00;0.90;;;;;;;;;;5096873;28;20356;-65
2022/10/24 13:33:53;;;;;;;1.52;0.98;;;;;;;;;;5095769;28;20270;-66
2022/10/24 13:36:22;;;;;;;0.85;0.82;;;;;;;;;;5096990;28;20210;-66
2022/10/24 13:38:51;;;;;;;0.88;0.85;;;;;;;;;;5096658;28;20231;-65
2022/10/24 13:41:24;;;;;;;1.70;0.80;;;;;;;;;;5096961;28;20204;-66
2022/10/24 13:43:54;;;;;;;0.77;0.70;;;;;;;;;;5095907;28;20714;-66
2022/10/24 13:46:26;;;;;;;1.52;0.70;;;;;;;;;;5096701;28;20227;-64
2022/10/24 13:48:54;;;;;;;0.80;0.80;;;;;;;;;;5095895;28;20709;-65
2022/10/24 13:51:24;;;;;;;1.00;0.90;;;;;;;;;;5095783;28;20237;-65
2022/10/24 13:53:53;;;;;;;1.10;0.90;;;;;;;;;;5096224;28;20247;-65
2022/10/24 13:56:22;;;;;;;1.10;1.00;;;;;;;;;;5096227;28;20328;-65
2022/10/24 13:58:50;;;;;;;1.08;0.88;;;;;;;;;;5095454;28;20239;-65
2022/10/24 14:01:19;;;;;;;1.60;0.90;;;;;;;;;;5096219;28;20264;-65
2022/10/24 14:03:47;;;;;;;0.82;0.80;;;;;;;;;;5096471;28;20227;-64
2022/10/24 14:06:15;;;;;;;0.80;0.80;;;;;;;;;;5095658;28;20614;-65
2022/10/24 14:08:44;;;;;;;1.13;0.70;;;;;;;;;;5094543;28;20307;-65
2022/10/24 14:11:14;;;;;;;0.70;0.70;;;;;;;;;;5095614;28;20619;-65
2022/10/24 14:13:46;;;;;;;1.35;0.80;;;;;;;;;;5095197;28;20288;-64
2022/10/24 14:16:14;;;;;;;1.20;1.10;;;;;;;;;;5095861;28;20235;-66
2022/10/24 14:18:41;;;;;;;0.80;0.80;;;;;;;;;;5095629;28;20299;-65
2022/10/24 14:21:17;;;;;;;0.73;0.73;;;;;;;;;;5096333;28;20239;-64
2022/10/24 14:23:54;;;;;;;1.73;0.77;;;;;;;;;;5094639;28;20219;-65
2022/10/24 14:26:22;;;;;;;0.65;0.60;;;;;;;;;;5095794;28;20320;-64
2022/10/24 14:28:53;;;;;;;1.58;0.93;;;;;;;;;;5095638;28;20203;-66
2022/10/24 14:31:22;;;;;;;1.10;0.90;;;;;;;;;;5095045;28;20211;-64
2022/10/24 14:33:51;;;;;;;0.85;0.80;;;;;;;;;;5094900;28;20249;-65
2022/10/24 14:36:20;;;;;;;0.98;0.70;;;;;;;;;;5095093;28;20242;-65
2022/10/24 14:38:49;;;;;;;0.80;0.70;;;;;;;;;;5095415;28;20295;-64
2022/10/24 14:41:16;;;;;;;0.90;0.70;;;;;;;;;;5094751;28;20288;-65
2022/10/24 14:43:44;;;;;;;0.82;0.82;;;;;;;;;;5094935;28;20322;-65
2022/10/24 14:46:33;;;;;;;0.98;0.77;;;;;;;;;;5095134;28;20946;-65
2022/10/24 14:49:15;;;;;;;0.63;0.63;;;;;;;;;;5094944;28;20199;-65
2022/10/24 14:51:43;;;;;;;1.00;0.88;;;;;;;;;;5094787;28;20223;-64
2022/10/24 14:54:15;;;;;;;0.80;0.60;;;;;;;;;;5095197;28;20256;-65
2022/10/24 14:56:42;;;;;;;0.70;0.70;;;;;;;;;;5094734;28;20195;-64
2022/10/24 14:59:20;;;;;;;0.80;0.65;;;;;;;;;;5095441;28;20273;-65
2022/10/24 15:01:55;;;;;;;0.60;0.60;;;;;;;;;;5095245;28;20298;-65